Time;durP1;ratioP1;P1;durP2;ratioP2;P2;SDS_P1;SDS_P2;PMS_P1;PMS_P2;Temp;Humidity;BMP_temperature;BMP_pressure;BME280_temperature;BME280_humidity;BME280_pressure;Samples;Min_cycle;Max_cycle;Signal;HPM_P1;HPM_P2
2023/01/15 00:01:45;;;;;;;0.50;0.50;;;11.30;99.90;;;;;;6174301;28;20050;-79
2023/01/15 00:04:50;;;;;;;2.22;0.68;;;11.30;99.90;;;;;;6174271;28;20046;-78
2023/01/15 00:07:53;;;;;;;1.30;0.50;;;11.30;99.90;;;;;;6177761;28;20053;-79
2023/01/15 00:10:55;;;;;;;0.45;0.45;;;11.30;99.90;;;;;;6197539;28;20401;-78
2023/01/15 00:13:57;;;;;;;0.65;0.40;;;11.30;99.90;;;;;;6197694;28;20050;-78
2023/01/15 00:16:59;;;;;;;0.73;0.60;;;11.30;99.90;;;;;;6196697;28;20042;-78
2023/01/15 00:20:00;;;;;;;0.45;0.45;;;11.20;99.90;;;;;;6197145;28;20057;-78
2023/01/15 00:23:03;;;;;;;0.35;0.35;;;11.20;99.90;;;;;;6195156;28;20046;-78
2023/01/15 00:29:25;;;;;;;0.55;0.55;;;11.30;99.90;;;;;;6172657;28;20056;-78
2023/01/15 00:32:28;;;;;;;0.55;0.55;;;11.30;99.90;;;;;;6172884;28;20062;-78
2023/01/15 00:35:30;;;;;;;2.88;0.52;;;11.30;99.90;;;;;;6174496;28;20193;-78
2023/01/15 00:38:33;;;;;;;0.80;0.80;;;11.30;99.90;;;;;;6173424;28;20057;-78
2023/01/15 00:41:34;;;;;;;0.20;0.20;;;11.30;99.90;;;;;;6173543;28;20067;-78
2023/01/15 00:44:36;;;;;;;0.35;0.28;;;11.40;99.90;;;;;;6184202;28;20049;-79
2023/01/15 00:47:39;;;;;;;0.30;0.30;;;11.50;99.90;;;;;;6197526;28;20051;-78
2023/01/15 00:50:40;;;;;;;8.52;0.98;;;11.50;99.90;;;;;;6197711;28;20534;-78
2023/01/15 00:53:43;;;;;;;1.23;0.70;;;11.60;99.90;;;;;;6189613;28;20050;-78
2023/01/15 00:56:45;;;;;;;5.25;0.52;;;11.60;99.90;;;;;;6176404;28;20061;-78
2023/01/15 00:59:47;;;;;;;1.25;0.47;;;11.50;99.90;;;;;;6199271;28;20053;-79
2023/01/15 01:02:48;;;;;;;0.93;0.50;;;11.40;99.90;;;;;;6202065;28;20047;-78
2023/01/15 01:05:50;;;;;;;0.77;0.52;;;11.30;99.90;;;;;;6201837;28;20051;-79
2023/01/15 01:08:53;;;;;;;2.05;0.65;;;11.20;99.90;;;;;;6200409;28;20054;-78
2023/01/15 01:11:55;;;;;;;0.40;0.40;;;11.20;99.90;;;;;;6201932;28;20487;-78
2023/01/15 01:14:57;;;;;;;0.68;0.55;;;11.10;99.90;;;;;;6202245;28;20050;-78
2023/01/15 01:17:58;;;;;;;0.60;0.47;;;11.10;99.90;;;;;;6200731;28;20570;-78
2023/01/15 01:21:04;;;;;;;0.30;0.30;;;11.10;99.90;;;;;;6210759;23;20042;-80
2023/01/15 01:24:08;;;;;;;0.40;0.40;;;11.10;99.90;;;;;;6181218;28;20066;-82
2023/01/15 01:27:10;;;;;;;0.70;0.57;;;11.10;99.90;;;;;;6179774;28;20047;-79
2023/01/15 01:30:13;;;;;;;0.50;0.40;;;11.10;99.90;;;;;;6182409;28;20049;-83
2023/01/15 01:33:14;;;;;;;0.43;0.43;;;11.10;99.90;;;;;;6214496;28;20049;-81
2023/01/15 01:36:16;;;;;;;0.88;0.40;;;11.20;99.90;;;;;;6228664;28;20065;-83
2023/01/15 01:39:20;;;;;;;1.52;0.50;;;11.20;99.90;;;;;;6227471;28;20042;-82
2023/01/15 01:42:22;;;;;;;0.20;0.20;;;11.10;99.90;;;;;;6221976;28;20046;-82
2023/01/15 01:45:26;;;;;;;0.40;0.40;;;11.10;99.90;;;;;;6202876;28;20050;-82
2023/01/15 01:48:33;;;;;;;0.75;0.52;;;11.10;99.90;;;;;;6203963;28;20357;-84
2023/01/15 01:51:38;;;;;;;0.73;0.65;;;11.10;99.90;;;;;;6204463;28;20054;-84
2023/01/15 01:54:43;;;;;;;1.02;0.55;;;11.10;99.90;;;;;;6196826;28;20053;-82
2023/01/15 01:57:47;;;;;;;1.17;0.40;;;11.10;99.90;;;;;;6178397;28;20682;-83
2023/01/15 02:00:51;;;;;;;0.47;0.45;;;11.00;99.90;;;;;;6178610;28;20042;-82
2023/01/15 02:03:53;;;;;;;1.42;0.40;;;11.00;99.90;;;;;;6180182;28;20057;-82
2023/01/15 02:06:56;;;;;;;0.47;0.45;;;11.00;99.90;;;;;;6177321;28;20512;-82
2023/01/15 02:09:59;;;;;;;2.75;0.60;;;11.00;99.90;;;;;;6176949;28;20556;-82
2023/01/15 02:13:06;;;;;;;2.10;0.40;;;11.00;99.90;;;;;;6178523;28;20065;-82
2023/01/15 02:16:15;;;;;;;0.65;0.40;;;10.90;99.90;;;;;;6180964;28;20051;-79
2023/01/15 02:19:30;;;;;;;0.50;0.50;;;10.90;99.90;;;;;;6187252;28;20048;-82
2023/01/15 02:22:41;;;;;;;0.35;0.32;;;11.00;99.90;;;;;;6203453;28;20476;-81
2023/01/15 02:25:57;;;;;;;0.60;0.45;;;11.00;99.90;;;;;;6203829;28;20046;-81
2023/01/15 02:29:03;;;;;;;0.43;0.43;;;11.00;99.90;;;;;;6202814;28;20053;-80
2023/01/15 02:32:11;;;;;;;0.45;0.35;;;11.00;99.90;;;;;;6204496;28;20046;-80
2023/01/15 02:35:18;;;;;;;0.73;0.47;;;11.00;99.90;;;;;;6203599;28;20822;-83
2023/01/15 02:38:23;;;;;;;0.30;0.30;;;11.00;99.90;;;;;;6202922;28;20062;-81
2023/01/15 02:41:30;;;;;;;2.17;0.30;;;11.00;99.90;;;;;;6202282;28;20073;-81
2023/01/15 02:44:35;;;;;;;0.50;0.50;;;11.00;99.90;;;;;;6201847;28;20053;-81
2023/01/15 02:47:41;;;;;;;0.50;0.38;;;11.00;99.90;;;;;;6202336;28;20057;-83
2023/01/15 02:50:45;;;;;;;0.40;0.40;;;11.00;99.90;;;;;;6201788;28;20512;-82
2023/01/15 02:53:49;;;;;;;0.28;0.28;;;11.00;99.90;;;;;;6202421;28;20062;-84
2023/01/15 02:56:52;;;;;;;3.28;0.40;;;11.10;99.90;;;;;;6186168;28;20062;-83
2023/01/15 02:59:58;;;;;;;0.20;0.20;;;11.10;99.90;;;;;;6178126;28;20263;-80
2023/01/15 03:03:07;;;;;;;0.30;0.30;;;11.20;99.90;;;;;;6177544;28;20047;-84
2023/01/15 03:06:12;;;;;;;0.55;0.40;;;11.20;99.90;;;;;;6178744;28;20050;-81
2023/01/15 03:09:15;;;;;;;0.40;0.40;;;11.30;99.90;;;;;;6178297;28;20047;-81
2023/01/15 03:12:24;;;;;;;0.40;0.40;;;11.40;99.90;;;;;;6178737;28;20054;-82
2023/01/15 03:18:55;;;;;;;3.15;0.30;;;11.50;99.90;;;;;;6180196;28;20054;-82
2023/01/15 03:22:01;;;;;;;0.40;0.28;;;11.60;99.90;;;;;;6176667;28;20057;-83
2023/01/15 03:25:06;;;;;;;0.32;0.28;;;11.60;99.90;;;;;;6178157;28;20547;-81
2023/01/15 03:28:09;;;;;;;0.52;0.30;;;11.70;99.90;;;;;;6177742;28;20464;-83
2023/01/15 03:31:12;;;;;;;0.45;0.45;;;11.70;99.90;;;;;;6177580;28;20055;-83
2023/01/15 03:34:14;;;;;;;0.25;0.25;;;11.80;99.90;;;;;;6180127;28;20057;-83
2023/01/15 03:37:16;;;;;;;1.95;0.45;;;11.80;99.90;;;;;;6200103;28;20047;-78
2023/01/15 03:40:18;;;;;;;0.38;0.38;;;11.90;99.90;;;;;;6200626;28;20054;-83
2023/01/15 03:43:42;;;;;;;0.85;0.40;;;11.80;99.90;;;;;;6201155;28;20054;-83
2023/01/15 03:46:57;;;;;;;0.40;0.40;;;11.80;99.90;;;;;;6201082;28;20544;-83
2023/01/15 03:50:05;;;;;;;0.52;0.25;;;11.70;99.90;;;;;;6200954;28;20056;-81
2023/01/15 03:53:12;;;;;;;2.42;0.85;;;11.70;99.90;;;;;;6200197;28;20057;-83
2023/01/15 03:56:21;;;;;;;2.20;0.82;;;11.60;99.90;;;;;;6195805;28;20054;-83
2023/01/15 03:59:26;;;;;;;2.80;0.60;;;11.30;99.90;;;;;;6177066;28;20641;-80
2023/01/15 04:02:30;;;;;;;0.50;0.45;;;11.00;99.90;;;;;;6176159;28;20047;-82
2023/01/15 04:05:34;;;;;;;0.70;0.25;;;10.70;99.90;;;;;;6176940;28;20420;-80
2023/01/15 04:08:40;;;;;;;0.38;0.38;;;10.50;99.90;;;;;;6175700;28;20050;-81
2023/01/15 04:11:42;;;;;;;0.80;0.32;;;10.20;99.90;;;;;;6178028;28;20063;-82
2023/01/15 04:14:44;;;;;;;0.30;0.30;;;10.00;99.90;;;;;;6178040;28;20496;-83
2023/01/15 04:17:47;;;;;;;0.40;0.40;;;9.80;99.90;;;;;;6177173;28;20074;-82
2023/01/15 04:20:49;;;;;;;1.60;0.20;;;9.60;99.90;;;;;;6179554;28;20053;-82
2023/01/15 04:23:52;;;;;;;2.05;1.05;;;9.50;99.90;;;;;;6202228;28;20093;-84
2023/01/15 04:26:54;;;;;;;4.38;2.35;;;9.40;99.90;;;;;;6202054;28;20057;-80
2023/01/15 04:29:55;;;;;;;14.18;6.78;;;9.30;99.90;;;;;;6201131;28;20059;-81
2023/01/15 04:32:59;;;;;;;20.63;10.10;;;9.20;99.90;;;;;;6201921;28;20038;-83
2023/01/15 04:36:01;;;;;;;17.73;11.85;;;9.20;99.90;;;;;;6208995;28;20050;-81
2023/01/15 04:39:03;;;;;;;16.15;9.60;;;9.10;99.90;;;;;;6211244;28;20046;-81
2023/01/15 04:45:24;;;;;;;22.30;15.15;;;9.00;99.90;;;;;;6214832;28;20134;-83
2023/01/15 04:48:27;;;;;;;31.67;19.38;;;9.00;99.90;;;;;;6209187;28;20058;-84
2023/01/15 04:51:29;;;;;;;25.35;17.90;;;9.00;99.90;;;;;;6206784;28;20050;-81
2023/01/15 04:54:30;;;;;;;23.00;14.65;;;8.90;99.90;;;;;;6206980;28;20061;-82
2023/01/15 04:57:32;;;;;;;21.58;12.65;;;8.80;99.90;;;;;;6198085;28;20050;-82
2023/01/15 05:00:34;;;;;;;14.38;9.25;;;8.80;99.90;;;;;;6205300;28;20092;-84
2023/01/15 05:03:37;;;;;;;15.57;11.18;;;8.80;99.90;;;;;;6210451;28;20070;-79
2023/01/15 05:06:38;;;;;;;12.43;6.82;;;8.80;99.90;;;;;;6212619;28;20050;-84
2023/01/15 05:09:40;;;;;;;6.93;4.25;;;8.70;99.90;;;;;;6205090;28;20434;-82
2023/01/15 05:12:42;;;;;;;2.97;1.33;;;8.70;99.90;;;;;;6204756;28;20057;-81
2023/01/15 05:15:45;;;;;;;0.38;0.38;;;8.70;99.90;;;;;;6205875;28;20136;-82
2023/01/15 05:18:48;;;;;;;0.70;0.70;;;8.70;99.90;;;;;;6204063;28;20050;-83
2023/01/15 05:21:50;;;;;;;1.42;1.17;;;8.60;99.90;;;;;;6204339;28;20047;-83
2023/01/15 05:24:51;;;;;;;1.27;0.93;;;8.60;99.90;;;;;;6204295;28;20570;-83
2023/01/15 05:27:53;;;;;;;1.08;0.77;;;8.50;99.90;;;;;;6204353;28;20054;-83
2023/01/15 05:30:55;;;;;;;2.20;0.60;;;8.40;99.90;;;;;;6203744;28;20053;-82
2023/01/15 05:33:58;;;;;;;0.32;0.30;;;8.40;99.90;;;;;;6203977;28;20053;-81
2023/01/15 05:37:00;;;;;;;0.20;0.20;;;8.20;99.90;;;;;;6203789;28;20049;-83
2023/01/15 05:40:01;;;;;;;0.77;0.60;;;8.20;99.90;;;;;;6203165;28;20043;-83
2023/01/15 05:43:03;;;;;;;0.45;0.45;;;8.10;99.90;;;;;;6203715;28;20428;-80
2023/01/15 05:46:05;;;;;;;0.43;0.32;;;8.00;99.90;;;;;;6201385;28;20070;-80
2023/01/15 05:49:10;;;;;;;1.05;0.95;;;8.00;99.90;;;;;;6201619;28;20046;-83
2023/01/15 05:52:12;;;;;;;1.38;0.88;;;7.90;99.90;;;;;;6202854;28;20050;-81
2023/01/15 05:55:14;;;;;;;0.57;0.55;;;7.80;99.90;;;;;;6203858;28;20058;-82
2023/01/15 05:58:15;;;;;;;0.47;0.47;;;7.80;99.90;;;;;;6195418;28;20042;-79
2023/01/15 06:01:17;;;;;;;0.55;0.55;;;7.70;99.90;;;;;;6200263;28;20049;-81
2023/01/15 06:04:21;;;;;;;0.60;0.60;;;7.70;99.90;;;;;;6203065;28;20046;-82
2023/01/15 06:07:23;;;;;;;1.27;0.70;;;7.70;99.90;;;;;;6203249;28;20449;-80
2023/01/15 06:10:25;;;;;;;1.42;0.60;;;7.60;99.90;;;;;;6201687;28;20544;-83
2023/01/15 06:13:26;;;;;;;1.42;0.77;;;7.60;99.90;;;;;;6202407;28;20404;-82
2023/01/15 06:16:28;;;;;;;0.73;0.55;;;7.50;99.90;;;;;;6201679;28;20515;-81
2023/01/15 06:19:32;;;;;;;1.50;0.55;;;7.50;99.90;;;;;;6201002;28;20496;-83
2023/01/15 06:22:34;;;;;;;0.82;0.50;;;7.40;99.90;;;;;;6202077;28;20608;-80
2023/01/15 06:25:37;;;;;;;0.43;0.43;;;7.40;99.90;;;;;;6203306;28;20069;-81
2023/01/15 06:28:38;;;;;;;0.43;0.40;;;7.30;99.90;;;;;;6199259;28;20046;-83
2023/01/15 06:31:40;;;;;;;0.22;0.22;;;7.30;99.90;;;;;;6180577;28;20515;-78
2023/01/15 06:34:43;;;;;;;0.30;0.30;;;7.20;99.90;;;;;;6202586;28;20057;-80
2023/01/15 06:37:45;;;;;;;0.47;0.47;;;7.20;99.90;;;;;;6202674;28;20154;-78
2023/01/15 06:40:46;;;;;;;0.32;0.32;;;7.20;99.90;;;;;;6204325;28;20046;-81
2023/01/15 06:47:20;;;;;;;0.38;0.38;;;7.10;99.90;;;;;;6203863;28;20046;-79
2023/01/15 06:50:23;;;;;;;0.40;0.40;;;7.10;99.90;;;;;;6205036;28;20049;-80
2023/01/15 06:53:25;;;;;;;4.28;0.50;;;7.10;99.90;;;;;;6203858;28;20073;-82
2023/01/15 06:56:26;;;;;;;0.50;0.50;;;7.00;99.90;;;;;;6204719;28;20062;-79
2023/01/15 06:59:28;;;;;;;0.40;0.40;;;7.00;99.90;;;;;;6197234;28;20038;-79
2023/01/15 07:02:30;;;;;;;0.40;0.40;;;7.00;99.90;;;;;;6202635;28;20054;-81
2023/01/15 07:05:33;;;;;;;0.22;0.22;;;7.00;99.90;;;;;;6202764;28;20438;-82
2023/01/15 07:08:35;;;;;;;0.32;0.25;;;7.00;99.90;;;;;;6202645;28;20057;-80
2023/01/15 07:11:48;;;;;;;0.68;0.68;;;7.00;99.90;;;;;;6201734;28;20046;-81
2023/01/15 07:14:49;;;;;;;0.63;0.63;;;7.00;99.90;;;;;;6202716;28;20145;-81
2023/01/15 07:17:54;;;;;;;0.50;0.50;;;7.00;99.90;;;;;;6201986;28;20061;-80
2023/01/15 07:20:58;;;;;;;0.65;0.65;;;7.00;99.90;;;;;;6202927;28;20054;-78
2023/01/15 07:24:03;;;;;;;4.72;4.10;;;7.00;99.90;;;;;;6199891;23;20073;-80
2023/01/15 07:27:38;;;;;;;36.22;28.83;;;7.00;99.90;;;;;;6171540;28;20046;-81
2023/01/15 07:38:43;;;;;;;13.30;9.73;;;7.00;99.90;;;;;;6188558;28;20505;-81
2023/01/15 07:56:08;;;;;;;8.80;8.07;;;6.90;99.90;;;;;;6175913;28;20524;-81
2023/01/15 07:59:11;;;;;;;8.60;7.78;;;6.80;99.90;;;;;;6174078;28;20050;-80
2023/01/15 08:02:13;;;;;;;4.18;2.65;;;6.80;99.90;;;;;;6120357;28;20075;-81
2023/01/15 08:05:15;;;;;;;3.35;3.05;;;6.80;99.90;;;;;;6173698;28;20148;-80
2023/01/15 08:08:18;;;;;;;1.70;1.45;;;6.80;99.90;;;;;;6182634;28;20077;-81
2023/01/15 08:17:59;;;;;;;6.28;4.47;;;6.70;99.90;;;;;;6160666;28;20047;-81
2023/01/15 08:21:01;;;;;;;19.42;11.80;;;6.70;99.90;;;;;;6160463;28;20039;-79
2023/01/15 08:24:03;;;;;;;42.33;32.90;;;6.70;99.90;;;;;;6159519;28;20103;-81
2023/01/15 08:27:05;;;;;;;2.92;2.60;;;6.70;99.90;;;;;;6159697;28;20500;-80
2023/01/15 08:30:12;;;;;;;25.50;16.50;;;6.60;99.90;;;;;;6162271;28;20081;-79
2023/01/15 08:33:14;;;;;;;14.70;10.60;;;6.60;99.90;;;;;;6182757;28;20043;-79
2023/01/15 08:36:17;;;;;;;2.15;1.55;;;6.60;99.90;;;;;;6187449;28;20050;-78
2023/01/15 08:39:19;;;;;;;5.13;3.95;;;6.50;99.90;;;;;;6193119;28;20051;-80
2023/01/15 08:42:21;;;;;;;7.90;7.05;;;6.50;99.90;;;;;;6196046;28;20054;-79
2023/01/15 08:45:24;;;;;;;4.70;3.67;;;6.40;99.90;;;;;;6193617;28;20053;-81
2023/01/15 08:48:27;;;;;;;3.80;1.60;;;6.40;99.90;;;;;;6182962;28;20047;-80
2023/01/15 08:51:29;;;;;;;9.93;5.57;;;6.30;99.90;;;;;;6184668;28;20496;-83
2023/01/15 08:54:30;;;;;;;7.25;4.38;;;6.30;99.90;;;;;;6185709;28;20054;-82
2023/01/15 08:57:32;;;;;;;3.05;2.33;;;6.30;99.90;;;;;;6182517;28;20432;-82
2023/01/15 09:00:35;;;;;;;1.60;1.05;;;6.20;99.90;;;;;;6182379;28;20047;-82
2023/01/15 09:03:37;;;;;;;0.77;0.77;;;6.20;99.90;;;;;;6189782;28;20806;-81
2023/01/15 09:06:39;;;;;;;0.50;0.50;;;6.20;99.90;;;;;;6183962;28;20157;-81
2023/01/15 09:09:41;;;;;;;23.63;15.15;;;6.10;99.90;;;;;;6182712;28;20043;-80
2023/01/15 09:12:50;;;;;;;5.38;1.45;;;6.20;99.90;;;;;;6183196;28;20058;-84
2023/01/15 09:15:53;;;;;;;4.45;3.20;;;6.20;99.90;;;;;;6183892;28;20522;-79
2023/01/15 09:18:55;;;;;;;6.80;3.90;;;6.10;99.90;;;;;;6178865;28;20062;-79
2023/01/15 09:21:57;;;;;;;1.17;0.93;;;6.20;99.90;;;;;;6178510;28;20058;-83
2023/01/15 09:24:59;;;;;;;1.55;1.20;;;6.20;99.90;;;;;;6179368;28;20047;-80
2023/01/15 09:28:00;;;;;;;1.13;0.77;;;6.10;99.90;;;;;;6179025;28;20051;-81
2023/01/15 09:31:03;;;;;;;0.88;0.57;;;6.10;99.90;;;;;;6178862;28;20185;-81
2023/01/15 09:34:05;;;;;;;0.88;0.55;;;6.10;99.90;;;;;;6179928;28;20047;-81
2023/01/15 09:40:39;;;;;;;0.90;0.90;;;6.10;99.90;;;;;;6177937;28;20129;-78
2023/01/15 09:43:52;;;;;;;0.60;0.60;;;6.10;99.90;;;;;;6178451;28;20054;-81
2023/01/15 09:47:06;;;;;;;1.75;0.70;;;6.00;99.90;;;;;;6172248;28;20047;-80
2023/01/15 09:50:23;;;;;;;1.27;0.75;;;6.00;99.90;;;;;;6177000;28;20047;-81
2023/01/15 09:53:44;;;;;;;1.27;1.15;;;6.00;99.90;;;;;;6177853;28;20050;-80
2023/01/15 09:56:47;;;;;;;3.47;1.50;;;6.00;99.90;;;;;;6177241;28;20053;-81
2023/01/15 09:59:50;;;;;;;0.50;0.50;;;6.00;99.90;;;;;;6176841;28;20053;-80
2023/01/15 10:02:58;;;;;;;0.57;0.57;;;6.00;99.90;;;;;;6187122;28;20054;-81
2023/01/15 10:06:09;;;;;;;0.60;0.60;;;5.90;99.90;;;;;;6171579;28;20456;-81
2023/01/15 10:09:15;;;;;;;1.52;1.42;;;5.90;99.90;;;;;;6178357;28;20043;-81
2023/01/15 10:12:38;;;;;;;1.65;1.40;;;5.80;99.90;;;;;;6179856;28;20054;-81
2023/01/15 10:15:44;;;;;;;1.42;0.90;;;5.80;99.90;;;;;;6179694;28;20057;-81
2023/01/15 10:18:47;;;;;;;1.40;0.88;;;5.70;99.90;;;;;;6177280;28;20058;-81
2023/01/15 10:21:55;;;;;;;0.95;0.90;;;5.70;99.90;;;;;;6177504;28;20054;-80
2023/01/15 10:24:58;;;;;;;0.75;0.60;;;5.70;99.90;;;;;;6179120;28;20515;-81
2023/01/15 10:28:10;;;;;;;0.77;0.73;;;5.60;99.90;;;;;;6177776;28;20054;-80
2023/01/15 10:31:19;;;;;;;0.63;0.40;;;5.60;99.90;;;;;;6180370;28;20035;-80
2023/01/15 10:34:48;;;;;;;0.73;0.50;;;5.60;99.90;;;;;;6178773;28;20058;-81
2023/01/15 10:37:59;;;;;;;3.33;0.77;;;5.50;99.90;;;;;;6171592;28;20043;-81
2023/01/15 10:41:17;;;;;;;3.95;0.50;;;5.50;99.90;;;;;;6179037;28;20042;-81
2023/01/15 10:44:28;;;;;;;1.25;1.00;;;5.40;99.90;;;;;;6175758;28;20500;-80
2023/01/15 10:47:34;;;;;;;0.88;0.40;;;5.40;99.90;;;;;;6163034;28;20074;-81
2023/01/15 10:50:38;;;;;;;3.05;0.93;;;5.40;99.90;;;;;;6177893;28;20540;-81
2023/01/15 10:53:45;;;;;;;1.02;0.50;;;5.30;99.90;;;;;;6178136;28;20057;-81
2023/01/15 10:56:55;;;;;;;0.63;0.60;;;5.30;99.90;;;;;;6162828;28;20053;-81
2023/01/15 10:59:58;;;;;;;3.25;0.82;;;5.30;99.90;;;;;;6177911;28;20054;-81
2023/01/15 11:03:05;;;;;;;0.30;0.30;;;5.20;99.90;;;;;;6177230;28;20393;-81
2023/01/15 11:06:15;;;;;;;0.30;0.30;;;5.20;99.90;;;;;;6180325;28;20042;-82
2023/01/15 11:09:22;;;;;;;2.17;0.30;;;5.20;99.90;;;;;;6176433;28;20393;-81
2023/01/15 11:19:38;;;;;;;3.80;0.70;;;5.10;99.90;;;;;;6171409;28;20796;-81
2023/01/15 11:22:43;;;;;;;4.20;1.00;;;5.10;99.90;;;;;;6172142;28;20043;-81
2023/01/15 11:25:50;;;;;;;0.70;0.50;;;5.10;99.90;;;;;;6177737;28;20456;-81
2023/01/15 11:28:53;;;;;;;3.17;0.50;;;5.10;99.90;;;;;;6176749;28;20051;-81
2023/01/15 11:31:55;;;;;;;0.50;0.50;;;5.00;99.90;;;;;;6177267;28;20038;-81
2023/01/15 11:34:59;;;;;;;0.77;0.75;;;5.10;99.90;;;;;;6178265;28;20047;-81
2023/01/15 11:38:11;;;;;;;3.40;1.17;;;5.10;99.90;;;;;;6182720;28;20105;-80
2023/01/15 11:50:42;;;;;;;0.73;0.70;;;5.10;99.90;;;;;;6191639;28;20451;-80
2023/01/15 11:51:40;;;;;;;2.58;1.48;;;5.20;99.90;;;;;;6192522;28;20524;-79
2023/01/15 11:54:48;;;;;;;3.92;1.63;;;5.10;99.90;;;;;;6192163;28;20115;-80
2023/01/15 11:57:50;;;;;;;;;;;5.20;99.90;;;;;;6191709;28;20066;-80
2023/01/15 12:00:54;;;;;;;2.53;0.73;;;5.20;99.90;;;;;;6191807;28;19922;-81
2023/01/15 12:03:58;;;;;;;0.82;0.57;;;5.20;99.90;;;;;;6190815;28;20065;-80
2023/01/15 12:07:01;;;;;;;4.20;1.45;;;5.20;99.90;;;;;;6187664;28;20057;-80
2023/01/15 12:10:13;;;;;;;3.65;1.17;;;5.30;99.90;;;;;;6180717;28;20057;-81
2023/01/15 12:13:28;;;;;;;3.08;1.77;;;5.30;99.90;;;;;;6189147;28;20053;-79
2023/01/15 12:16:36;;;;;;;1.08;0.60;;;5.40;99.90;;;;;;6192689;28;20053;-81
2023/01/15 12:19:44;;;;;;;6.03;1.90;;;5.50;99.90;;;;;;6189791;28;20051;-80
2023/01/15 12:23:10;;;;;;;4.97;1.88;;;5.60;99.90;;;;;;6189865;28;20493;-80
2023/01/15 12:26:22;;;;;;;5.65;2.05;;;5.70;99.90;;;;;;6188070;28;20056;-81
2023/01/15 12:29:29;;;;;;;1.92;0.40;;;5.80;99.90;;;;;;6186928;28;20049;-81
2023/01/15 12:32:36;;;;;;;0.82;0.65;;;5.90;99.90;;;;;;6185734;28;20047;-80
2023/01/15 12:35:41;;;;;;;;;;;6.00;99.90;;;;;;6187140;28;20066;-81
2023/01/15 12:38:49;;;;;;;0.85;0.60;;;6.10;99.90;;;;;;6187611;28;20013;-80
2023/01/15 12:45:20;;;;;;;1.98;1.50;;;6.70;99.90;;;;;;6187781;28;20043;-79
2023/01/15 12:48:30;;;;;;;3.08;0.60;;;7.40;99.90;;;;;;6180129;28;20055;-80
2023/01/15 12:51:39;;;;;;;6.72;1.77;;;7.60;99.90;;;;;;6174922;28;20047;-80
2023/01/15 12:54:48;;;;;;;2.72;1.40;;;7.50;99.90;;;;;;6175490;28;20504;-80
2023/01/15 12:57:53;;;;;;;2.45;1.30;;;7.70;99.90;;;;;;6176296;28;20054;-79
2023/01/15 13:01:04;;;;;;;2.58;0.80;;;7.90;99.90;;;;;;6179103;28;20077;-79
2023/01/15 13:04:14;;;;;;;3.53;1.60;;;8.10;99.90;;;;;;6177887;28;20054;-81
2023/01/15 13:07:23;;;;;;;2.13;1.80;;;8.60;99.90;;;;;;6188108;28;20042;-78
2023/01/15 13:10:27;;;;;;;2.10;1.60;;;8.80;99.90;;;;;;6201565;28;20421;-79
2023/01/15 13:13:34;;;;;;;5.38;0.63;;;9.20;99.90;;;;;;6200678;28;20050;-80
2023/01/15 13:16:43;;;;;;;3.50;1.00;;;9.50;99.90;;;;;;6201825;28;20408;-79
2023/01/15 13:19:57;;;;;;;1.77;1.00;;;9.40;99.90;;;;;;6202097;28;20062;-79
2023/01/15 13:23:08;;;;;;;2.22;1.05;;;9.10;99.90;;;;;;6212369;23;20407;-82
2023/01/15 13:26:22;;;;;;;2.05;0.80;;;8.80;99.90;;;;;;6178327;28;20397;-80
2023/01/15 13:29:34;;;;;;;1.73;0.80;;;8.60;99.90;;;;;;6178378;28;20054;-83
2023/01/15 13:32:43;;;;;;;3.30;0.75;;;8.70;99.90;;;;;;6179869;28;20050;-81
2023/01/15 13:35:48;;;;;;;0.90;0.55;;;8.40;99.90;;;;;;6179266;28;20050;-80
2023/01/15 13:38:53;;;;;;;3.08;1.20;;;8.20;99.90;;;;;;6177578;28;20435;-81
2023/01/15 13:45:29;;;;;;;2.22;1.60;;;7.90;99.90;;;;;;6182435;28;20054;-82
2023/01/15 13:48:34;;;;;;;4.75;2.55;;;8.00;99.90;;;;;;6179635;28;20069;-82
2023/01/15 13:51:37;;;;;;;3.15;1.65;;;8.10;99.90;;;;;;6180637;28;20050;-81
2023/01/15 13:54:41;;;;;;;3.30;2.40;;;8.50;99.90;;;;;;6181049;28;20508;-81
2023/01/15 13:57:43;;;;;;;6.55;3.72;;;8.60;99.90;;;;;;6177858;28;20047;-81
2023/01/15 14:00:46;;;;;;;4.75;2.78;;;8.50;99.90;;;;;;6179407;28;20352;-82
2023/01/15 14:04:00;;;;;;;3.38;2.10;;;8.30;99.90;;;;;;6180116;28;20146;-81
2023/01/15 14:07:01;;;;;;;4.97;1.38;;;8.20;99.90;;;;;;6179546;28;20038;-82
2023/01/15 14:10:22;;;;;;;8.48;1.08;;;8.00;99.90;;;;;;6170652;28;20058;-81
2023/01/15 14:13:47;;;;;;;5.30;2.20;;;7.80;99.90;;;;;;6161604;28;20043;-82
2023/01/15 14:16:59;;;;;;;3.63;1.15;;;7.60;99.90;;;;;;6179801;28;20046;-82
2023/01/15 14:20:21;;;;;;;2.95;1.15;;;7.40;99.90;;;;;;6180700;28;20058;-82
2023/01/15 14:23:39;;;;;;;5.00;1.23;;;7.20;99.90;;;;;;6156655;28;20051;-81
2023/01/15 14:26:45;;;;;;;;;;;7.10;99.90;;;;;;6177942;28;20054;-82
2023/01/15 14:30:03;;;;;;;4.78;2.38;;;7.00;99.90;;;;;;6179504;28;19937;-81
2023/01/15 14:33:17;;;;;;;5.97;0.85;;;7.20;99.90;;;;;;6177557;28;20043;-82
2023/01/15 14:36:24;;;;;;;3.00;1.45;;;7.70;99.90;;;;;;6182061;28;20057;-82
2023/01/15 14:39:30;;;;;;;3.38;2.05;;;8.00;99.90;;;;;;6179709;28;20058;-82
2023/01/15 14:45:55;;;;;;;6.55;2.20;;;7.70;99.90;;;;;;6179277;28;20039;-83
2023/01/15 14:48:58;;;;;;;3.50;0.85;;;7.50;99.90;;;;;;6179532;28;20070;-82
2023/01/15 14:52:02;;;;;;;2.63;0.88;;;7.60;99.90;;;;;;6178845;28;20062;-81
2023/01/15 14:55:10;;;;;;;0.98;0.70;;;7.40;99.90;;;;;;6180036;28;20061;-80
2023/01/15 14:58:17;;;;;;;2.95;0.70;;;7.30;99.90;;;;;;6177903;28;20157;-82
2023/01/15 15:01:36;;;;;;;1.45;0.88;;;7.10;99.90;;;;;;6181033;28;20519;-82
2023/01/15 15:04:43;;;;;;;2.38;0.90;;;7.00;99.90;;;;;;6180509;28;20077;-78
2023/01/15 15:07:51;;;;;;;1.15;0.70;;;6.90;99.90;;;;;;6180723;28;20038;-82
2023/01/15 15:10:54;;;;;;;2.90;1.10;;;6.90;99.90;;;;;;6181174;28;20050;-81
2023/01/15 15:13:57;;;;;;;0.98;0.80;;;6.90;99.90;;;;;;6180509;28;20073;-83
2023/01/15 15:17:00;;;;;;;1.13;0.60;;;6.90;99.90;;;;;;6180241;28;20055;-81
2023/01/15 15:20:18;;;;;;;2.63;0.60;;;6.90;99.90;;;;;;6180637;28;20269;-82
2023/01/15 15:23:26;;;;;;;1.90;1.13;;;7.00;99.90;;;;;;6179775;28;20059;-81
2023/01/15 15:26:29;;;;;;;1.33;0.80;;;7.00;99.90;;;;;;6180100;28;20050;-81
2023/01/15 15:29:31;;;;;;;2.05;0.80;;;7.10;99.90;;;;;;6178595;28;20055;-82
2023/01/15 15:32:38;;;;;;;1.40;0.85;;;7.10;99.90;;;;;;6179404;28;20424;-80
2023/01/15 15:35:46;;;;;;;1.77;0.50;;;7.10;99.90;;;;;;6180601;28;20115;-82
2023/01/15 15:38:52;;;;;;;;;;;7.20;99.90;;;;;;6187324;28;20054;-81
2023/01/15 15:48:41;;;;;;;2.15;0.60;;;7.30;99.90;;;;;;6179236;28;20055;-82
2023/01/15 15:51:48;;;;;;;3.63;1.90;;;7.30;99.90;;;;;;6178726;28;20050;-82
2023/01/15 15:54:58;;;;;;;2.00;0.70;;;7.30;99.90;;;;;;6179618;28;20105;-82
2023/01/15 15:58:03;;;;;;;5.20;0.95;;;7.30;99.90;;;;;;6177875;28;20460;-80
2023/01/15 16:01:04;;;;;;;2.92;2.65;;;7.30;99.90;;;;;;6180967;28;20046;-82
2023/01/15 16:04:06;;;;;;;3.40;1.45;;;7.30;99.90;;;;;;6179259;28;20074;-82
2023/01/15 16:07:23;;;;;;;3.50;0.85;;;7.30;99.90;;;;;;6178052;28;20058;-82
2023/01/15 16:10:30;;;;;;;8.73;7.82;;;7.30;99.90;;;;;;6165427;28;20428;-82
2023/01/15 16:13:36;;;;;;;2.28;0.63;;;7.20;99.90;;;;;;6154518;28;20051;-83
2023/01/15 16:16:38;;;;;;;4.95;3.60;;;7.20;99.90;;;;;;6155378;28;20095;-82
2023/01/15 16:19:41;;;;;;;1.15;0.82;;;7.20;99.90;;;;;;6177726;28;20043;-82
2023/01/15 16:22:51;;;;;;;0.80;0.70;;;7.20;99.90;;;;;;6178907;28;20062;-80
2023/01/15 16:26:00;;;;;;;6.97;1.52;;;7.20;99.90;;;;;;6179124;28;20053;-81
2023/01/15 16:29:05;;;;;;;4.20;1.00;;;7.20;99.90;;;;;;6178673;28;20051;-83
2023/01/15 16:32:11;;;;;;;2.20;1.17;;;7.20;99.90;;;;;;6183013;28;20039;-82
2023/01/15 16:35:18;;;;;;;0.98;0.90;;;7.10;99.90;;;;;;6182479;28;20058;-82
2023/01/15 16:38:21;;;;;;;1.03;0.93;;;7.10;99.90;;;;;;6181370;28;20113;-83
2023/01/15 16:41:31;;;;;;;1.85;0.82;;;7.20;99.90;;;;;;6183066;28;20082;-83
2023/01/15 16:44:41;;;;;;;4.93;1.38;;;7.20;99.90;;;;;;6182085;28;20528;-83
2023/01/15 16:48:01;;;;;;;0.50;0.47;;;7.20;99.90;;;;;;6180718;28;20059;-83
2023/01/15 16:51:29;;;;;;;1.42;0.68;;;7.20;99.90;;;;;;6180789;28;20062;-82
2023/01/15 16:54:44;;;;;;;2.60;1.95;;;7.20;99.90;;;;;;6180590;28;20081;-82
2023/01/15 16:57:46;;;;;;;4.30;1.08;;;7.20;99.90;;;;;;6181258;28;20051;-84
2023/01/15 17:00:50;;;;;;;2.20;1.38;;;7.20;99.90;;;;;;6180906;28;20049;-85
2023/01/15 17:03:52;;;;;;;4.47;1.23;;;7.20;99.90;;;;;;6181890;28;20051;-84
2023/01/15 17:06:56;;;;;;;3.35;1.08;;;7.30;99.90;;;;;;6181967;28;20047;-83
2023/01/15 17:10:00;;;;;;;4.88;0.65;;;7.30;99.90;;;;;;6171808;28;20062;-84
2023/01/15 17:13:02;;;;;;;2.42;1.15;;;7.30;99.90;;;;;;6157667;28;20047;-84
2023/01/15 17:16:06;;;;;;;1.90;1.10;;;7.30;99.90;;;;;;6158554;28;20279;-84
2023/01/15 17:19:11;;;;;;;4.72;0.82;;;7.30;99.90;;;;;;6157620;28;20090;-84
2023/01/15 17:22:16;;;;;;;1.92;0.77;;;7.30;99.90;;;;;;6159397;28;20051;-84
2023/01/15 17:25:25;;;;;;;2.33;1.00;;;7.30;99.90;;;;;;6158705;28;20043;-81
2023/01/15 17:28:31;;;;;;;2.80;0.88;;;7.30;99.90;;;;;;6156303;28;20422;-84
2023/01/15 17:31:35;;;;;;;2.08;0.82;;;7.30;99.90;;;;;;6158459;28;20065;-81
2023/01/15 17:34:36;;;;;;;2.67;0.93;;;7.30;99.90;;;;;;6176103;28;20055;-84